sensor_id;sensor_type;location;lat;lon;timestamp;temperature;humidity
37646;DHT22;23489;49.600;6.138;2023-02-15T00:00:52;0.70;99.90
37646;DHT22;23489;49.600;6.138;2023-02-15T00:03:20;0.70;99.90
37646;DHT22;23489;49.600;6.138;2023-02-15T00:05:46;0.70;99.90
37646;DHT22;23489;49.600;6.138;2023-02-15T00:08:12;0.70;99.90
37646;DHT22;23489;49.600;6.138;2023-02-15T00:10:38;0.70;99.90
37646;DHT22;23489;49.600;6.138;2023-02-15T00:13:03;0.60;99.90
37646;DHT22;23489;49.600;6.138;2023-02-15T00:15:29;0.60;99.90
37646;DHT22;23489;49.600;6.138;2023-02-15T00:17:57;0.60;99.90
37646;DHT22;23489;49.600;6.138;2023-02-15T00:20:22;0.60;99.90
37646;DHT22;23489;49.600;6.138;2023-02-15T00:22:48;0.60;99.90
37646;DHT22;23489;49.600;6.138;2023-02-15T00:25:13;0.50;99.90
37646;DHT22;23489;49.600;6.138;2023-02-15T00:27:39;0.50;99.90
37646;DHT22;23489;49.600;6.138;2023-02-15T00:30:05;0.50;99.90
37646;DHT22;23489;49.600;6.138;2023-02-15T00:32:31;0.40;99.90
37646;DHT22;23489;49.600;6.138;2023-02-15T00:34:57;0.40;99.90
37646;DHT22;23489;49.600;6.138;2023-02-15T00:37:23;0.30;99.90
37646;DHT22;23489;49.600;6.138;2023-02-15T00:39:49;0.30;99.90
37646;DHT22;23489;49.600;6.138;2023-02-15T00:42:16;0.20;99.90
37646;DHT22;23489;49.600;6.138;2023-02-15T00:44:41;0.20;99.90
37646;DHT22;23489;49.600;6.138;2023-02-15T00:47:07;0.20;99.90
37646;DHT22;23489;49.600;6.138;2023-02-15T00:49:33;0.20;99.90
37646;DHT22;23489;49.600;6.138;2023-02-15T00:51:58;0.20;99.90
37646;DHT22;23489;49.600;6.138;2023-02-15T00:54:24;0.30;99.90
37646;DHT22;23489;49.600;6.138;2023-02-15T00:56:50;0.30;99.90
37646;DHT22;23489;49.600;6.138;2023-02-15T00:59:15;0.30;99.90
37646;DHT22;23489;49.600;6.138;2023-02-15T01:01:41;0.30;99.90
37646;DHT22;23489;49.600;6.138;2023-02-15T01:04:07;0.20;99.90
37646;DHT22;23489;49.600;6.138;2023-02-15T01:06:33;0.20;99.90
37646;DHT22;23489;49.600;6.138;2023-02-15T01:08:58;0.10;99.90
37646;DHT22;23489;49.600;6.138;2023-02-15T01:11:24;0.00;99.90
37646;DHT22;23489;49.600;6.138;2023-02-15T01:13:52;0.00;99.90
37646;DHT22;23489;49.600;6.138;2023-02-15T01:16:19;0.00;99.90
37646;DHT22;23489;49.600;6.138;2023-02-15T01:18:45;0.00;99.90
37646;DHT22;23489;49.600;6.138;2023-02-15T01:21:17;0.00;99.90
37646;DHT22;23489;49.600;6.138;2023-02-15T01:23:44;0.00;99.90
37646;DHT22;23489;49.600;6.138;2023-02-15T01:26:11;0.00;99.90
37646;DHT22;23489;49.600;6.138;2023-02-15T01:28:37;-0.10;99.90
37646;DHT22;23489;49.600;6.138;2023-02-15T01:31:08;-0.10;99.90
37646;DHT22;23489;49.600;6.138;2023-02-15T01:33:35;-0.10;99.90
37646;DHT22;23489;49.600;6.138;2023-02-15T01:36:02;-0.10;99.90
37646;DHT22;23489;49.600;6.138;2023-02-15T01:38:27;-0.20;99.90
37646;DHT22;23489;49.600;6.138;2023-02-15T01:40:54;-0.20;99.90
37646;DHT22;23489;49.600;6.138;2023-02-15T01:43:42;-0.20;99.90
37646;DHT22;23489;49.600;6.138;2023-02-15T01:46:09;-0.20;99.90
37646;DHT22;23489;49.600;6.138;2023-02-15T01:48:39;-0.20;99.90
37646;DHT22;23489;49.600;6.138;2023-02-15T01:51:06;-0.20;99.90
37646;DHT22;23489;49.600;6.138;2023-02-15T01:53:38;-0.30;99.90
37646;DHT22;23489;49.600;6.138;2023-02-15T01:56:18;-0.30;99.90
37646;DHT22;23489;49.600;6.138;2023-02-15T01:58:49;-0.30;99.90
37646;DHT22;23489;49.600;6.138;2023-02-15T02:01:18;-0.30;99.90
37646;DHT22;23489;49.600;6.138;2023-02-15T02:04:14;-0.30;99.90
37646;DHT22;23489;49.600;6.138;2023-02-15T02:06:41;-0.30;99.90
37646;DHT22;23489;49.600;6.138;2023-02-15T02:09:07;-0.40;99.90
37646;DHT22;23489;49.600;6.138;2023-02-15T02:11:33;-0.40;99.90
37646;DHT22;23489;49.600;6.138;2023-02-15T02:14:00;-0.40;99.90
37646;DHT22;23489;49.600;6.138;2023-02-15T02:19:26;-0.50;99.90
37646;DHT22;23489;49.600;6.138;2023-02-15T02:30:17;-0.70;99.90
37646;DHT22;23489;49.600;6.138;2023-02-15T02:36:02;-0.70;99.90
37646;DHT22;23489;49.600;6.138;2023-02-15T02:46:41;-0.60;99.90
37646;DHT22;23489;49.600;6.138;2023-02-15T02:49:09;-0.60;99.90
37646;DHT22;23489;49.600;6.138;2023-02-15T02:51:35;-0.60;99.90
37646;DHT22;23489;49.600;6.138;2023-02-15T02:54:04;-0.60;99.90
37646;DHT22;23489;49.600;6.138;2023-02-15T02:56:41;-0.70;99.90
37646;DHT22;23489;49.600;6.138;2023-02-15T02:59:25;-0.60;99.90
37646;DHT22;23489;49.600;6.138;2023-02-15T03:01:56;-0.70;99.90
37646;DHT22;23489;49.600;6.138;2023-02-15T03:04:31;-0.70;99.90
37646;DHT22;23489;49.600;6.138;2023-02-15T03:07:01;-0.70;99.90
37646;DHT22;23489;49.600;6.138;2023-02-15T03:09:31;-0.70;99.90
37646;DHT22;23489;49.600;6.138;2023-02-15T03:14:46;-0.70;99.90
37646;DHT22;23489;49.600;6.138;2023-02-15T03:17:14;-0.70;99.90
37646;DHT22;23489;49.600;6.138;2023-02-15T03:19:40;-0.70;99.90
37646;DHT22;23489;49.600;6.138;2023-02-15T03:22:18;-0.70;99.90
37646;DHT22;23489;49.600;6.138;2023-02-15T03:24:57;-0.80;99.90
37646;DHT22;23489;49.600;6.138;2023-02-15T03:27:28;-0.70;99.90
37646;DHT22;23489;49.600;6.138;2023-02-15T03:29:58;-0.80;99.90
37646;DHT22;23489;49.600;6.138;2023-02-15T03:32:26;-0.80;99.90
37646;DHT22;23489;49.600;6.138;2023-02-15T03:34:54;-0.80;99.90
37646;DHT22;23489;49.600;6.138;2023-02-15T03:37:32;-0.80;99.90
37646;DHT22;23489;49.600;6.138;2023-02-15T03:40:11;-0.80;99.90
37646;DHT22;23489;49.600;6.138;2023-02-15T03:45:58;-0.80;99.90
37646;DHT22;23489;49.600;6.138;2023-02-15T03:48:32;-0.80;99.90
37646;DHT22;23489;49.600;6.138;2023-02-15T03:51:08;-0.80;99.90
37646;DHT22;23489;49.600;6.138;2023-02-15T03:53:54;-0.90;99.90
37646;DHT22;23489;49.600;6.138;2023-02-15T03:56:20;-0.90;99.90
37646;DHT22;23489;49.600;6.138;2023-02-15T03:58:46;-0.90;99.90
37646;DHT22;23489;49.600;6.138;2023-02-15T04:01:36;-0.90;99.90
37646;DHT22;23489;49.600;6.138;2023-02-15T04:04:34;-0.90;99.90
37646;DHT22;23489;49.600;6.138;2023-02-15T04:07:01;-1.00;99.90
37646;DHT22;23489;49.600;6.138;2023-02-15T04:09:27;-1.00;99.90
37646;DHT22;23489;49.600;6.138;2023-02-15T04:12:11;-1.00;99.90
37646;DHT22;23489;49.600;6.138;2023-02-15T04:14:37;-1.00;99.90
37646;DHT22;23489;49.600;6.138;2023-02-15T04:17:21;-1.00;99.90
37646;DHT22;23489;49.600;6.138;2023-02-15T04:19:47;-1.00;99.90
37646;DHT22;23489;49.600;6.138;2023-02-15T04:22:31;-1.00;99.90
37646;DHT22;23489;49.600;6.138;2023-02-15T04:25:16;-1.10;99.90
37646;DHT22;23489;49.600;6.138;2023-02-15T04:27:47;-1.10;99.90
37646;DHT22;23489;49.600;6.138;2023-02-15T04:30:15;-1.10;99.90
37646;DHT22;23489;49.600;6.138;2023-02-15T04:32:41;-1.10;99.90
37646;DHT22;23489;49.600;6.138;2023-02-15T04:35:07;-1.10;99.90
37646;DHT22;23489;49.600;6.138;2023-02-15T04:37:33;-1.10;99.90
37646;DHT22;23489;49.600;6.138;2023-02-15T04:39:59;-1.10;99.90
37646;DHT22;23489;49.600;6.138;2023-02-15T04:42:25;-1.10;99.90
37646;DHT22;23489;49.600;6.138;2023-02-15T04:44:51;-1.10;99.90
37646;DHT22;23489;49.600;6.138;2023-02-15T04:47:17;-1.10;99.90
37646;DHT22;23489;49.600;6.138;2023-02-15T04:49:43;-1.10;99.90
37646;DHT22;23489;49.600;6.138;2023-02-15T04:52:09;-1.10;99.90
37646;DHT22;23489;49.600;6.138;2023-02-15T04:54:35;-1.10;99.90
37646;DHT22;23489;49.600;6.138;2023-02-15T04:57:00;-1.10;99.90
37646;DHT22;23489;49.600;6.138;2023-02-15T04:59:26;-1.10;99.90
37646;DHT22;23489;49.600;6.138;2023-02-15T05:01:52;-1.10;99.90
37646;DHT22;23489;49.600;6.138;2023-02-15T05:04:18;-1.10;99.90
37646;DHT22;23489;49.600;6.138;2023-02-15T05:06:44;-1.00;99.90
37646;DHT22;23489;49.600;6.138;2023-02-15T05:09:11;-1.10;99.90
37646;DHT22;23489;49.600;6.138;2023-02-15T05:11:36;-1.00;99.90
37646;DHT22;23489;49.600;6.138;2023-02-15T05:14:02;-1.00;99.90
37646;DHT22;23489;49.600;6.138;2023-02-15T05:16:28;-1.00;99.90
37646;DHT22;23489;49.600;6.138;2023-02-15T05:18:53;-1.00;99.90
37646;DHT22;23489;49.600;6.138;2023-02-15T05:21:19;-1.00;99.90
37646;DHT22;23489;49.600;6.138;2023-02-15T05:23:45;-0.90;99.90
37646;DHT22;23489;49.600;6.138;2023-02-15T05:26:16;-0.90;99.90
37646;DHT22;23489;49.600;6.138;2023-02-15T05:29:01;-0.90;99.90
37646;DHT22;23489;49.600;6.138;2023-02-15T05:31:27;-0.90;99.90
37646;DHT22;23489;49.600;6.138;2023-02-15T05:33:52;-1.00;99.90
37646;DHT22;23489;49.600;6.138;2023-02-15T05:36:18;-1.00;99.90
37646;DHT22;23489;49.600;6.138;2023-02-15T05:38:43;-1.00;99.90
37646;DHT22;23489;49.600;6.138;2023-02-15T05:41:10;-1.00;99.90
37646;DHT22;23489;49.600;6.138;2023-02-15T05:43:37;-1.00;99.90
37646;DHT22;23489;49.600;6.138;2023-02-15T05:46:03;-1.00;99.90
37646;DHT22;23489;49.600;6.138;2023-02-15T05:48:29;-1.00;99.90
37646;DHT22;23489;49.600;6.138;2023-02-15T05:51:03;-1.00;99.90
37646;DHT22;23489;49.600;6.138;2023-02-15T05:53:31;-1.00;99.90
37646;DHT22;23489;49.600;6.138;2023-02-15T05:55:57;-1.00;99.90
37646;DHT22;23489;49.600;6.138;2023-02-15T05:58:26;-1.00;99.90
37646;DHT22;23489;49.600;6.138;2023-02-15T06:00:52;-1.00;99.90
37646;DHT22;23489;49.600;6.138;2023-02-15T06:03:18;-1.00;99.90
37646;DHT22;23489;49.600;6.138;2023-02-15T06:05:43;-0.90;99.90
37646;DHT22;23489;49.600;6.138;2023-02-15T06:08:09;-0.90;99.90
37646;DHT22;23489;49.600;6.138;2023-02-15T06:10:35;-0.90;99.90
37646;DHT22;23489;49.600;6.138;2023-02-15T06:13:01;-0.90;99.90
37646;DHT22;23489;49.600;6.138;2023-02-15T06:15:26;-0.90;99.90
37646;DHT22;23489;49.600;6.138;2023-02-15T06:17:52;-0.90;99.90
37646;DHT22;23489;49.600;6.138;2023-02-15T06:20:17;-1.00;99.90
37646;DHT22;23489;49.600;6.138;2023-02-15T06:22:43;-1.00;99.90
37646;DHT22;23489;49.600;6.138;2023-02-15T06:25:09;-1.00;99.90
37646;DHT22;23489;49.600;6.138;2023-02-15T06:27:37;-1.10;99.90
37646;DHT22;23489;49.600;6.138;2023-02-15T06:30:05;-1.10;99.90
37646;DHT22;23489;49.600;6.138;2023-02-15T06:32:31;-1.20;99.90
37646;DHT22;23489;49.600;6.138;2023-02-15T06:34:57;-1.10;99.90
37646;DHT22;23489;49.600;6.138;2023-02-15T06:37:23;-1.20;99.90
37646;DHT22;23489;49.600;6.138;2023-02-15T06:39:48;-1.10;99.90
37646;DHT22;23489;49.600;6.138;2023-02-15T06:42:14;-1.20;99.90
37646;DHT22;23489;49.600;6.138;2023-02-15T06:44:39;-1.20;99.90
37646;DHT22;23489;49.600;6.138;2023-02-15T06:47:05;-1.20;99.90
37646;DHT22;23489;49.600;6.138;2023-02-15T06:49:31;-1.20;99.90
37646;DHT22;23489;49.600;6.138;2023-02-15T06:51:56;-1.20;99.90
37646;DHT22;23489;49.600;6.138;2023-02-15T06:54:22;-1.30;99.90
37646;DHT22;23489;49.600;6.138;2023-02-15T06:56:47;-1.30;99.90
37646;DHT22;23489;49.600;6.138;2023-02-15T06:59:13;-1.30;99.90
37646;DHT22;23489;49.600;6.138;2023-02-15T07:01:39;-1.40;99.90
37646;DHT22;23489;49.600;6.138;2023-02-15T07:04:04;-1.40;99.90
37646;DHT22;23489;49.600;6.138;2023-02-15T07:06:33;-1.40;99.90
37646;DHT22;23489;49.600;6.138;2023-02-15T07:08:59;-1.40;99.90
37646;DHT22;23489;49.600;6.138;2023-02-15T07:11:25;-1.30;99.90
37646;DHT22;23489;49.600;6.138;2023-02-15T07:14:09;-1.40;99.90
37646;DHT22;23489;49.600;6.138;2023-02-15T07:16:35;-1.40;99.90
37646;DHT22;23489;49.600;6.138;2023-02-15T07:19:01;-1.40;99.90
37646;DHT22;23489;49.600;6.138;2023-02-15T07:21:27;-1.40;99.90
37646;DHT22;23489;49.600;6.138;2023-02-15T07:23:56;-1.40;99.90
37646;DHT22;23489;49.600;6.138;2023-02-15T07:26:22;-1.60;99.90
37646;DHT22;23489;49.600;6.138;2023-02-15T07:28:48;-1.50;99.90
37646;DHT22;23489;49.600;6.138;2023-02-15T07:31:14;-1.50;99.90
37646;DHT22;23489;49.600;6.138;2023-02-15T07:33:40;-1.50;99.90
37646;DHT22;23489;49.600;6.138;2023-02-15T07:36:05;-1.40;99.90
37646;DHT22;23489;49.600;6.138;2023-02-15T07:38:36;-1.40;99.90
37646;DHT22;23489;49.600;6.138;2023-02-15T07:41:07;-1.40;99.90
37646;DHT22;23489;49.600;6.138;2023-02-15T07:43:35;-1.40;99.90
37646;DHT22;23489;49.600;6.138;2023-02-15T07:46:03;-1.40;99.90
37646;DHT22;23489;49.600;6.138;2023-02-15T07:48:30;-1.40;99.90
37646;DHT22;23489;49.600;6.138;2023-02-15T07:50:59;-1.40;99.90
37646;DHT22;23489;49.600;6.138;2023-02-15T07:53:25;-1.40;99.90
37646;DHT22;23489;49.600;6.138;2023-02-15T07:55:51;-1.40;99.90
37646;DHT22;23489;49.600;6.138;2023-02-15T07:58:18;-1.40;99.90
37646;DHT22;23489;49.600;6.138;2023-02-15T08:00:43;-1.40;99.90
37646;DHT22;23489;49.600;6.138;2023-02-15T08:03:25;-1.40;99.90
37646;DHT22;23489;49.600;6.138;2023-02-15T08:05:59;-1.30;99.90
37646;DHT22;23489;49.600;6.138;2023-02-15T08:08:26;-1.30;99.90
37646;DHT22;23489;49.600;6.138;2023-02-15T08:11:05;-1.30;99.90
37646;DHT22;23489;49.600;6.138;2023-02-15T08:14:00;-1.10;99.90
37646;DHT22;23489;49.600;6.138;2023-02-15T08:19:17;-1.00;99.90
37646;DHT22;23489;49.600;6.138;2023-02-15T08:21:52;-1.00;99.90
37646;DHT22;23489;49.600;6.138;2023-02-15T08:24:20;-0.90;99.90
37646;DHT22;23489;49.600;6.138;2023-02-15T08:26:47;-0.80;99.90
37646;DHT22;23489;49.600;6.138;2023-02-15T08:29:14;-0.70;99.90
37646;DHT22;23489;49.600;6.138;2023-02-15T08:31:40;-0.60;99.90
37646;DHT22;23489;49.600;6.138;2023-02-15T08:34:08;-0.60;99.90
37646;DHT22;23489;49.600;6.138;2023-02-15T08:36:34;-0.60;99.90
37646;DHT22;23489;49.600;6.138;2023-02-15T08:39:02;-0.40;99.90
37646;DHT22;23489;49.600;6.138;2023-02-15T08:41:32;-0.30;99.90
37646;DHT22;23489;49.600;6.138;2023-02-15T08:44:00;-0.20;99.90
37646;DHT22;23489;49.600;6.138;2023-02-15T08:46:28;-0.20;99.90
37646;DHT22;23489;49.600;6.138;2023-02-15T08:48:55;-0.10;99.90
37646;DHT22;23489;49.600;6.138;2023-02-15T08:51:25;-0.10;99.90
37646;DHT22;23489;49.600;6.138;2023-02-15T08:53:54;0.10;99.90
37646;DHT22;23489;49.600;6.138;2023-02-15T08:56:28;0.20;99.90
37646;DHT22;23489;49.600;6.138;2023-02-15T08:58:55;0.30;99.90
37646;DHT22;23489;49.600;6.138;2023-02-15T09:01:23;0.30;99.90
37646;DHT22;23489;49.600;6.138;2023-02-15T09:03:51;0.40;99.90
37646;DHT22;23489;49.600;6.138;2023-02-15T09:06:21;0.50;99.90
37646;DHT22;23489;49.600;6.138;2023-02-15T09:08:48;0.50;99.90
37646;DHT22;23489;49.600;6.138;2023-02-15T09:11:15;0.50;99.90
37646;DHT22;23489;49.600;6.138;2023-02-15T09:13:56;0.60;99.90
37646;DHT22;23489;49.600;6.138;2023-02-15T09:16:23;0.90;99.90
37646;DHT22;23489;49.600;6.138;2023-02-15T09:18:50;1.10;99.90
37646;DHT22;23489;49.600;6.138;2023-02-15T09:21:18;1.00;99.90
37646;DHT22;23489;49.600;6.138;2023-02-15T09:23:46;0.90;99.90
37646;DHT22;23489;49.600;6.138;2023-02-15T09:26:15;1.00;99.90
37646;DHT22;23489;49.600;6.138;2023-02-15T09:28:41;0.90;99.90
37646;DHT22;23489;49.600;6.138;2023-02-15T09:31:11;1.00;99.90
37646;DHT22;23489;49.600;6.138;2023-02-15T09:33:38;1.00;99.90
37646;DHT22;23489;49.600;6.138;2023-02-15T09:36:05;0.90;99.90
37646;DHT22;23489;49.600;6.138;2023-02-15T09:38:31;0.90;99.90
37646;DHT22;23489;49.600;6.138;2023-02-15T09:49:44;0.90;99.90
37646;DHT22;23489;49.600;6.138;2023-02-15T09:52:40;0.90;99.90
37646;DHT22;23489;49.600;6.138;2023-02-15T10:04:14;1.30;99.90
37646;DHT22;23489;49.600;6.138;2023-02-15T10:06:57;1.20;99.90
37646;DHT22;23489;49.600;6.138;2023-02-15T10:12:24;1.30;99.90
37646;DHT22;23489;49.600;6.138;2023-02-15T10:17:39;1.40;99.90
37646;DHT22;23489;49.600;6.138;2023-02-15T10:25:39;1.40;99.90
37646;DHT22;23489;49.600;6.138;2023-02-15T10:30:48;1.50;99.90
37646;DHT22;23489;49.600;6.138;2023-02-15T10:33:38;1.60;99.90
37646;DHT22;23489;49.600;6.138;2023-02-15T10:36:28;1.60;99.90
37646;DHT22;23489;49.600;6.138;2023-02-15T10:52:58;2.70;99.90
37646;DHT22;23489;49.600;6.138;2023-02-15T10:58:24;3.00;99.90
37646;DHT22;23489;49.600;6.138;2023-02-15T11:00:55;3.10;99.90
37646;DHT22;23489;49.600;6.138;2023-02-15T11:03:58;3.00;99.90
37646;DHT22;23489;49.600;6.138;2023-02-15T11:06:31;3.10;99.90
37646;DHT22;23489;49.600;6.138;2023-02-15T11:09:02;3.20;99.90
37646;DHT22;23489;49.600;6.138;2023-02-15T11:11:34;3.60;99.90
37646;DHT22;23489;49.600;6.138;2023-02-15T11:14:05;3.80;99.90
37646;DHT22;23489;49.600;6.138;2023-02-15T11:16:40;4.00;99.90
37646;DHT22;23489;49.600;6.138;2023-02-15T11:19:25;4.10;99.90
37646;DHT22;23489;49.600;6.138;2023-02-15T11:21:58;4.40;99.90
37646;DHT22;23489;49.600;6.138;2023-02-15T11:24:28;4.60;99.90
37646;DHT22;23489;49.600;6.138;2023-02-15T11:27:19;4.60;99.90
37646;DHT22;23489;49.600;6.138;2023-02-15T11:32:38;4.70;99.90
37646;DHT22;23489;49.600;6.138;2023-02-15T11:35:27;4.80;99.90
37646;DHT22;23489;49.600;6.138;2023-02-15T11:38:06;4.90;99.90
37646;DHT22;23489;49.600;6.138;2023-02-15T11:40:36;5.00;99.90
37646;DHT22;23489;49.600;6.138;2023-02-15T11:45:52;5.00;99.90
37646;DHT22;23489;49.600;6.138;2023-02-15T11:48:20;4.90;99.90
37646;DHT22;23489;49.600;6.138;2023-02-15T11:50:46;4.90;99.90
37646;DHT22;23489;49.600;6.138;2023-02-15T11:53:15;4.70;99.90
37646;DHT22;23489;49.600;6.138;2023-02-15T11:55:45;4.50;99.90
37646;DHT22;23489;49.600;6.138;2023-02-15T11:58:37;4.50;99.90
37646;DHT22;23489;49.600;6.138;2023-02-15T12:04:17;4.40;99.90
37646;DHT22;23489;49.600;6.138;2023-02-15T12:06:49;4.40;99.90
37646;DHT22;23489;49.600;6.138;2023-02-15T12:09:45;4.50;99.90
37646;DHT22;23489;49.600;6.138;2023-02-15T12:12:25;4.60;99.90
37646;DHT22;23489;49.600;6.138;2023-02-15T12:14:56;4.70;99.90
37646;DHT22;23489;49.600;6.138;2023-02-15T12:17:25;4.80;99.90
37646;DHT22;23489;49.600;6.138;2023-02-15T12:20:33;4.70;99.90
37646;DHT22;23489;49.600;6.138;2023-02-15T12:23:04;4.60;99.90
37646;DHT22;23489;49.600;6.138;2023-02-15T12:25:49;4.60;99.90
37646;DHT22;23489;49.600;6.138;2023-02-15T12:30:54;4.70;99.90
37646;DHT22;23489;49.600;6.138;2023-02-15T12:33:41;4.70;99.90
37646;DHT22;23489;49.600;6.138;2023-02-15T12:36:29;4.80;99.90
37646;DHT22;23489;49.600;6.138;2023-02-15T12:41:44;5.00;99.90
37646;DHT22;23489;49.600;6.138;2023-02-15T12:44:25;5.10;99.90
37646;DHT22;23489;49.600;6.138;2023-02-15T12:49:30;5.40;99.90
37646;DHT22;23489;49.600;6.138;2023-02-15T12:51:58;5.50;99.90
37646;DHT22;23489;49.600;6.138;2023-02-15T12:54:38;5.60;99.90
37646;DHT22;23489;49.600;6.138;2023-02-15T13:00:11;5.90;99.90
37646;DHT22;23489;49.600;6.138;2023-02-15T13:02:55;6.00;99.90
37646;DHT22;23489;49.600;6.138;2023-02-15T13:05:42;6.00;99.90
37646;DHT22;23489;49.600;6.138;2023-02-15T13:10:59;6.20;99.90
37646;DHT22;23489;49.600;6.138;2023-02-15T13:13:31;6.20;99.90
37646;DHT22;23489;49.600;6.138;2023-02-15T13:16:01;6.30;99.90
37646;DHT22;23489;49.600;6.138;2023-02-15T13:18:37;6.40;99.90
37646;DHT22;23489;49.600;6.138;2023-02-15T13:23:38;6.40;99.90
37646;DHT22;23489;49.600;6.138;2023-02-15T13:26:10;6.50;99.90
37646;DHT22;23489;49.600;6.138;2023-02-15T13:28:44;6.50;99.90
37646;DHT22;23489;49.600;6.138;2023-02-15T13:31:17;6.50;99.90
37646;DHT22;23489;49.600;6.138;2023-02-15T13:33:53;6.60;99.90
37646;DHT22;23489;49.600;6.138;2023-02-15T13:36:44;6.70;99.90
37646;DHT22;23489;49.600;6.138;2023-02-15T13:39:25;6.80;99.90
37646;DHT22;23489;49.600;6.138;2023-02-15T13:42:16;6.80;99.90
37646;DHT22;23489;49.600;6.138;2023-02-15T13:47:47;7.10;99.90
37646;DHT22;23489;49.600;6.138;2023-02-15T13:55:44;7.20;99.90
37646;DHT22;23489;49.600;6.138;2023-02-15T13:58:37;7.20;99.90
37646;DHT22;23489;49.600;6.138;2023-02-15T14:02:11;7.20;99.90
37646;DHT22;23489;49.600;6.138;2023-02-15T14:04:26;7.20;99.90
37646;DHT22;23489;49.600;6.138;2023-02-15T14:12:57;7.40;99.90
37646;DHT22;23489;49.600;6.138;2023-02-15T14:18:21;7.50;99.90
37646;DHT22;23489;49.600;6.138;2023-02-15T14:23:52;7.50;99.90
37646;DHT22;23489;49.600;6.138;2023-02-15T14:29:22;7.40;99.90
37646;DHT22;23489;49.600;6.138;2023-02-15T14:31:54;7.40;99.90
37646;DHT22;23489;49.600;6.138;2023-02-15T14:34:30;7.50;99.90
37646;DHT22;23489;49.600;6.138;2023-02-15T14:36:57;7.50;99.90
37646;DHT22;23489;49.600;6.138;2023-02-15T14:45:24;7.60;99.90
37646;DHT22;23489;49.600;6.138;2023-02-15T14:48:02;7.60;99.90
37646;DHT22;23489;49.600;6.138;2023-02-15T14:50:42;7.70;99.90
37646;DHT22;23489;49.600;6.138;2023-02-15T14:58:55;7.70;99.90
37646;DHT22;23489;49.600;6.138;2023-02-15T15:01:40;7.70;99.90
37646;DHT22;23489;49.600;6.138;2023-02-15T15:04:09;7.70;99.90
37646;DHT22;23489;49.600;6.138;2023-02-15T15:06:40;7.70;99.90
37646;DHT22;23489;49.600;6.138;2023-02-15T15:09:22;7.70;99.90
37646;DHT22;23489;49.600;6.138;2023-02-15T15:11:52;7.80;99.90
37646;DHT22;23489;49.600;6.138;2023-02-15T15:17:01;7.90;99.90
37646;DHT22;23489;49.600;6.138;2023-02-15T15:22:37;8.00;99.90
37646;DHT22;23489;49.600;6.138;2023-02-15T15:27:56;8.00;99.90
37646;DHT22;23489;49.600;6.138;2023-02-15T15:38:42;7.90;99.90
37646;DHT22;23489;49.600;6.138;2023-02-15T15:42:12;7.90;99.90
37646;DHT22;23489;49.600;6.138;2023-02-15T15:44:53;7.90;99.90
37646;DHT22;23489;49.600;6.138;2023-02-15T15:47:50;7.80;99.90
37646;DHT22;23489;49.600;6.138;2023-02-15T15:50:19;7.70;99.90
37646;DHT22;23489;49.600;6.138;2023-02-15T15:52:54;7.70;99.90
37646;DHT22;23489;49.600;6.138;2023-02-15T15:55:23;7.60;99.90
37646;DHT22;23489;49.600;6.138;2023-02-15T15:58:04;7.60;99.90
37646;DHT22;23489;49.600;6.138;2023-02-15T16:00:41;7.50;99.90
37646;DHT22;23489;49.600;6.138;2023-02-15T16:03:47;7.50;99.90
37646;DHT22;23489;49.600;6.138;2023-02-15T16:06:14;7.40;99.90
37646;DHT22;23489;49.600;6.138;2023-02-15T16:08:40;7.40;99.90
37646;DHT22;23489;49.600;6.138;2023-02-15T16:11:20;7.30;99.90
37646;DHT22;23489;49.600;6.138;2023-02-15T16:13:47;7.30;99.90
37646;DHT22;23489;49.600;6.138;2023-02-15T16:16:23;7.20;99.90
37646;DHT22;23489;49.600;6.138;2023-02-15T16:18:50;7.20;99.90
37646;DHT22;23489;49.600;6.138;2023-02-15T16:21:23;7.20;99.90
37646;DHT22;23489;49.600;6.138;2023-02-15T16:24:09;7.10;99.90
37646;DHT22;23489;49.600;6.138;2023-02-15T16:29:18;7.00;99.90
37646;DHT22;23489;49.600;6.138;2023-02-15T16:32:00;6.90;99.90
37646;DHT22;23489;49.600;6.138;2023-02-15T16:34:26;6.90;99.90
37646;DHT22;23489;49.600;6.138;2023-02-15T16:37:12;6.80;99.90
37646;DHT22;23489;49.600;6.138;2023-02-15T16:39:43;6.80;99.90
37646;DHT22;23489;49.600;6.138;2023-02-15T16:42:11;6.80;99.90
37646;DHT22;23489;49.600;6.138;2023-02-15T16:44:37;6.70;99.90
37646;DHT22;23489;49.600;6.138;2023-02-15T16:47:03;6.60;99.90
37646;DHT22;23489;49.600;6.138;2023-02-15T16:49:29;6.50;99.90
37646;DHT22;23489;49.600;6.138;2023-02-15T16:52:03;6.50;99.90
37646;DHT22;23489;49.600;6.138;2023-02-15T16:54:31;6.40;99.90
37646;DHT22;23489;49.600;6.138;2023-02-15T16:56:57;6.30;99.90
37646;DHT22;23489;49.600;6.138;2023-02-15T17:01:55;6.20;99.90
37646;DHT22;23489;49.600;6.138;2023-02-15T17:07:14;6.10;99.90
37646;DHT22;23489;49.600;6.138;2023-02-15T17:09:52;6.10;99.90
37646;DHT22;23489;49.600;6.138;2023-02-15T17:12:44;6.00;99.90
37646;DHT22;23489;49.600;6.138;2023-02-15T17:15:34;6.00;99.90
37646;DHT22;23489;49.600;6.138;2023-02-15T17:18:08;5.90;99.90
37646;DHT22;23489;49.600;6.138;2023-02-15T17:20:37;5.80;99.90
37646;DHT22;23489;49.600;6.138;2023-02-15T17:23:04;5.70;99.90
37646;DHT22;23489;49.600;6.138;2023-02-15T17:25:40;5.60;99.90
37646;DHT22;23489;49.600;6.138;2023-02-15T17:28:17;5.60;99.90
37646;DHT22;23489;49.600;6.138;2023-02-15T17:30:44;5.50;99.90
37646;DHT22;23489;49.600;6.138;2023-02-15T17:33:37;5.40;99.90
37646;DHT22;23489;49.600;6.138;2023-02-15T17:38:40;5.20;99.90
37646;DHT22;23489;49.600;6.138;2023-02-15T17:41:06;5.10;99.90
37646;DHT22;23489;49.600;6.138;2023-02-15T17:43:32;5.00;99.90
37646;DHT22;23489;49.600;6.138;2023-02-15T17:45:58;4.90;99.90
37646;DHT22;23489;49.600;6.138;2023-02-15T17:48:31;4.90;99.90
37646;DHT22;23489;49.600;6.138;2023-02-15T17:51:00;4.90;99.90
37646;DHT22;23489;49.600;6.138;2023-02-15T17:53:26;4.80;99.90
37646;DHT22;23489;49.600;6.138;2023-02-15T17:55:52;4.80;99.90
37646;DHT22;23489;49.600;6.138;2023-02-15T17:58:19;4.70;99.90
37646;DHT22;23489;49.600;6.138;2023-02-15T18:00:56;4.70;99.90
37646;DHT22;23489;49.600;6.138;2023-02-15T18:03:49;4.60;99.90
37646;DHT22;23489;49.600;6.138;2023-02-15T18:06:42;4.50;99.90
37646;DHT22;23489;49.600;6.138;2023-02-15T18:09:27;4.50;99.90
37646;DHT22;23489;49.600;6.138;2023-02-15T18:14:49;4.30;99.90
37646;DHT22;23489;49.600;6.138;2023-02-15T18:17:15;4.30;99.90
37646;DHT22;23489;49.600;6.138;2023-02-15T18:19:43;4.20;99.90
37646;DHT22;23489;49.600;6.138;2023-02-15T18:22:15;4.20;99.90
37646;DHT22;23489;49.600;6.138;2023-02-15T18:24:41;4.10;99.90
37646;DHT22;23489;49.600;6.138;2023-02-15T18:27:07;4.00;99.90
37646;DHT22;23489;49.600;6.138;2023-02-15T18:29:33;4.00;99.90
37646;DHT22;23489;49.600;6.138;2023-02-15T18:31:59;3.90;99.90
37646;DHT22;23489;49.600;6.138;2023-02-15T18:34:37;3.90;99.90
37646;DHT22;23489;49.600;6.138;2023-02-15T18:37:05;3.90;99.90
37646;DHT22;23489;49.600;6.138;2023-02-15T18:39:47;3.90;99.90
37646;DHT22;23489;49.600;6.138;2023-02-15T18:44:44;3.90;99.90
37646;DHT22;23489;49.600;6.138;2023-02-15T18:47:09;3.80;99.90
37646;DHT22;23489;49.600;6.138;2023-02-15T18:49:35;3.80;99.90
37646;DHT22;23489;49.600;6.138;2023-02-15T18:52:01;3.70;99.90
37646;DHT22;23489;49.600;6.138;2023-02-15T18:54:27;3.70;99.90
37646;DHT22;23489;49.600;6.138;2023-02-15T18:56:57;3.60;99.90
37646;DHT22;23489;49.600;6.138;2023-02-15T18:59:24;3.50;99.90